Time;durP1;ratioP1;P1;durP2;ratioP2;P2;SDS_P1;SDS_P2;PMS_P1;PMS_P2;Temp;Humidity;BMP_temperature;BMP_pressure;BME280_temperature;BME280_humidity;BME280_pressure;Samples;Min_cycle;Max_cycle;Signal;HPM_P1;HPM_P2
2023/01/05 00:01:29;;;;;;;67.63;32.93;;;;;;;-141.97;80.62;47790.09;5035204;28;20732;-81
2023/01/05 00:03:54;;;;;;;60.80;32.70;;;;;;;-141.97;80.46;47863.13;5035030;28;20166;-81
2023/01/05 00:06:20;;;;;;;70.30;33.63;;;;;;;-141.97;80.47;47799.72;5035150;28;20216;-82
2023/01/05 00:08:46;;;;;;;62.17;33.57;;;;;;;-141.97;80.53;47876.59;5017343;28;20170;-81
2023/01/05 00:22:31;;;;;;;67.27;33.20;;;;;;;-141.97;81.01;47782.41;5034894;28;20243;-82
2023/01/05 00:24:56;;;;;;;65.07;33.07;;;;;;;-141.97;80.92;47792.03;5034817;28;20158;-82
2023/01/05 00:27:22;;;;;;;59.47;31.90;;;;;;;-141.97;81.20;47765.09;5035047;28;20323;-81
2023/01/05 00:29:47;;;;;;;60.07;32.00;;;;;;;-141.97;80.70;47780.47;5034836;28;20682;-81
2023/01/05 00:32:13;;;;;;;62.37;31.60;;;;;;;-141.97;80.85;47757.41;5034549;28;20158;-81
2023/01/05 00:34:38;;;;;;;59.90;31.10;;;;;;;-141.97;80.80;47770.88;5034430;28;20555;-82
2023/01/05 00:37:03;;;;;;;56.60;31.13;;;;;;;-141.97;80.93;47780.47;5034657;28;20293;-81
2023/01/05 00:39:29;;;;;;;59.90;30.70;;;;;;;-141.97;80.82;47803.56;5034738;28;20432;-82
2023/01/05 00:41:54;;;;;;;60.87;32.00;;;;;;;-141.97;80.92;47815.09;5034185;28;20217;-81
2023/01/05 00:44:19;;;;;;;61.33;32.00;;;;;;;-141.97;81.36;47768.94;5034404;28;20166;-82
2023/01/05 00:46:45;;;;;;;66.30;33.10;;;;;;;-141.97;81.34;47663.22;5034241;28;20234;-82
2023/01/05 00:49:10;;;;;;;63.63;32.67;;;;;;;-141.97;81.14;47866.97;5033681;28;20181;-82
2023/01/05 00:51:35;;;;;;;59.07;31.90;;;;;;;-141.97;81.08;47738.19;5034313;28;20246;-81
2023/01/05 00:54:01;;;;;;;67.00;32.47;;;;;;;-141.97;80.95;47793.94;5034685;28;20170;-81
2023/01/05 00:56:26;;;;;;;63.40;33.37;;;;;;;-141.97;81.11;47763.19;5038576;28;20166;-80
2023/01/05 00:58:53;;;;;;;67.00;33.80;;;;;;;-141.97;81.23;47745.88;5019260;28;20172;-82
2023/01/05 01:01:19;;;;;;;65.77;33.83;;;;;;;-141.97;81.28;47845.84;5034804;28;20670;-82
2023/01/05 01:03:44;;;;;;;63.43;33.20;;;;;;;-141.97;81.97;47736.28;5034366;28;20163;-81
2023/01/05 01:06:09;;;;;;;62.40;32.27;;;;;;;-141.97;82.40;47742.03;5034085;28;20178;-82
2023/01/05 01:08:35;;;;;;;66.63;33.70;;;;;;;-141.97;82.33;47778.56;5034138;28;20185;-81
2023/01/05 01:11:07;;;;;;;64.40;32.53;;;;;;;-141.97;82.56;47730.50;5033683;28;20193;-82
2023/01/05 01:13:33;;;;;;;66.97;33.87;;;;;;;-141.97;81.90;47799.72;5034093;28;20166;-81
2023/01/05 01:16:05;;;;;;;61.77;32.77;;;;;;;-141.97;82.11;47797.78;5033687;28;20170;-82
2023/01/05 01:18:31;;;;;;;66.10;33.10;;;;;;;-141.97;82.86;47801.63;5033265;28;20178;-83
2023/01/05 01:20:56;;;;;;;67.57;34.00;;;;;;;-141.97;83.21;47842.00;5033591;28;20190;-82
2023/01/05 01:23:21;;;;;;;70.03;34.57;;;;;;;-141.97;83.49;47811.25;5033650;28;20162;-81
2023/01/05 01:25:47;;;;;;;93.40;45.03;;;;;;;-141.97;83.44;47842.00;5033480;28;20161;-81
2023/01/05 01:28:12;;;;;;;184.20;89.60;;;;;;;-141.97;83.57;47743.97;5033353;28;20158;-81
2023/01/05 01:30:38;;;;;;;113.83;54.77;;;;;;;-141.97;83.26;47644.00;5033613;28;20147;-81
2023/01/05 01:33:04;;;;;;;95.07;44.87;;;;;;;-141.97;83.56;47776.63;5033692;28;20260;-81
2023/01/05 01:35:29;;;;;;;69.60;36.87;;;;;;;-141.97;83.05;47805.47;5033255;28;20166;-81
2023/01/05 01:37:54;;;;;;;65.60;32.67;;;;;;;-141.97;82.99;47626.72;5012704;28;20206;-83
2023/01/05 01:40:20;;;;;;;69.70;34.67;;;;;;;-141.97;82.73;47847.75;5011983;28;20685;-81
2023/01/05 01:42:45;;;;;;;65.10;33.23;;;;;;;-141.97;83.27;47761.25;5013434;28;20186;-81
2023/01/05 01:45:24;;;;;;;88.10;43.67;;;;;;;-141.97;83.54;47799.72;5013625;28;20166;-80
2023/01/05 01:47:55;;;;;;;137.33;61.00;;;;;;;-141.97;83.62;47757.41;5013587;28;20302;-81
2023/01/05 01:50:26;;;;;;;134.40;55.93;;;;;;;-141.97;83.46;47815.09;5013118;28;20251;-82
2023/01/05 01:52:57;;;;;;;123.67;54.97;;;;;;;-141.97;83.71;47772.78;5013338;28;20154;-82
2023/01/05 01:55:23;;;;;;;111.60;50.87;;;;;;;-141.97;84.39;47805.47;5013327;28;20166;-81
2023/01/05 01:57:49;;;;;;;111.80;48.40;;;;;;;-141.97;84.46;47824.69;5013600;28;20206;-82
2023/01/05 02:00:17;;;;;;;80.33;39.00;;;;;;;-141.97;83.86;47780.47;5012094;28;20550;-83
2023/01/05 02:02:45;;;;;;;71.37;35.20;;;;;;;-141.97;84.61;47776.63;5013197;28;20217;-82
2023/01/05 02:05:12;;;;;;;70.37;35.67;;;;;;;-141.97;85.31;47788.19;5013449;28;20598;-81
2023/01/05 02:07:43;;;;;;;75.87;36.03;;;;;;;-141.97;86.03;47761.25;5011883;28;20210;-81
2023/01/05 02:10:09;;;;;;;73.53;36.90;;;;;;;-141.97;87.33;47763.19;5013258;28;20253;-81
2023/01/05 02:12:34;;;;;;;82.67;37.17;;;;;;;-141.97;88.15;47776.63;5012799;28;20198;-82
2023/01/05 02:15:09;;;;;;;75.37;36.37;;;;;;;-141.97;89.26;47732.44;5012761;28;20198;-81
2023/01/05 02:17:34;;;;;;;76.23;37.50;;;;;;;-141.97;88.75;47826.63;5012808;28;20344;-82
2023/01/05 02:20:24;;;;;;;74.40;36.67;;;;;;;-141.97;89.35;47793.94;5012549;28;20629;-81
2023/01/05 02:23:24;;;;;;;74.40;37.07;;;;;;;-141.97;89.42;47797.78;5012484;28;20198;-81
2023/01/05 02:26:54;;;;;;;66.43;33.87;;;;;;;-141.97;88.99;47738.19;5012433;28;20201;-81
2023/01/05 02:29:28;;;;;;;71.43;34.73;;;;;;;-141.97;89.75;47792.03;4952293;29;20176;-81
2023/01/05 02:32:03;;;;;;;70.80;35.27;;;;;;;-141.97;89.72;47767.03;4952237;29;20184;-81
2023/01/05 02:34:38;;;;;;;72.53;35.70;;;;;;;-141.97;89.35;47826.63;4952269;29;20172;-81
2023/01/05 02:37:24;;;;;;;74.87;36.30;;;;;;;-141.97;89.31;47757.41;4936162;29;20196;-81
2023/01/05 02:39:57;;;;;;;113.20;50.37;;;;;;;-141.97;88.97;47799.72;4952195;29;20228;-81
2023/01/05 02:42:25;;;;;;;112.83;49.87;;;;;;;-141.97;89.21;47803.56;4952020;29;20201;-82
2023/01/05 02:44:51;;;;;;;86.07;41.73;;;;;;;-141.97;89.20;47786.25;4951849;29;20228;-81
2023/01/05 02:47:28;;;;;;;80.37;37.80;;;;;;;-141.97;90.15;47803.56;4951840;29;20637;-81
2023/01/05 02:49:59;;;;;;;77.00;36.47;;;;;;;-141.97;90.39;47836.22;4951482;29;20661;-81
2023/01/05 02:52:26;;;;;;;91.43;43.03;;;;;;;-141.97;90.56;47780.47;4951598;29;20220;-82
2023/01/05 02:54:59;;;;;;;81.20;40.30;;;;;;;-141.97;90.81;47772.78;4951520;29;20164;-81
2023/01/05 02:57:46;;;;;;;86.27;41.63;;;;;;;-141.97;90.71;47790.09;4951724;29;20215;-82
2023/01/05 03:00:20;;;;;;;84.60;43.57;;;;;;;-141.97;90.45;47780.47;4951604;29;20172;-82
2023/01/05 03:02:48;;;;;;;80.83;37.47;;;;;;;-141.97;90.70;47840.06;4968912;28;20218;-82
2023/01/05 03:05:23;;;;;;;78.37;38.47;;;;;;;-141.97;90.63;47792.03;4994556;28;20201;-82
2023/01/05 03:07:51;;;;;;;89.50;40.47;;;;;;;-141.97;90.44;47795.88;5011817;28;20166;-82
2023/01/05 03:15:57;;;;;;;86.30;40.00;;;;;;;-141.97;89.35;47788.19;5012104;28;20446;-82
2023/01/05 03:18:25;;;;;;;76.83;36.70;;;;;;;-141.97;89.10;47830.47;4993975;28;20177;-82
2023/01/05 03:20:53;;;;;;;71.13;34.83;;;;;;;-141.97;89.93;47880.44;5011734;28;20766;-82
2023/01/05 03:37:38;;;;;;;84.20;40.23;;;;;;;-141.97;91.10;47792.03;5011618;28;20174;-82
2023/01/05 03:40:08;;;;;;;87.10;41.63;;;;;;;-141.97;90.41;47793.94;5011554;28;20233;-83
2023/01/05 03:42:33;;;;;;;91.63;42.33;;;;;;;-141.97;90.21;47813.16;5012224;28;20232;-82
2023/01/05 03:44:58;;;;;;;97.07;43.03;;;;;;;-141.97;89.58;47807.41;5011520;28;20577;-82
2023/01/05 03:47:25;;;;;;;90.67;43.47;;;;;;;-141.97;90.27;47738.19;5011793;28;20190;-82
2023/01/05 03:49:50;;;;;;;90.80;43.67;;;;;;;-141.97;90.65;47803.56;4994176;28;20557;-82
2023/01/05 03:52:16;;;;;;;86.10;42.40;;;;;;;-141.97;91.92;47818.94;5012194;28;20221;-81
2023/01/05 03:54:41;;;;;;;94.27;45.83;;;;;;;-141.97;93.65;47888.13;5011690;28;20206;-82
2023/01/05 03:57:07;;;;;;;103.03;49.57;;;;;;;-141.97;93.75;47795.88;5011588;28;20171;-82
2023/01/05 03:59:32;;;;;;;111.23;54.27;;;;;;;-141.97;95.11;47688.22;5011549;28;20226;-81
2023/01/05 04:01:57;;;;;;;96.03;46.67;;;;;;;-141.97;96.37;47768.94;5011266;28;20197;-82
2023/01/05 04:04:23;;;;;;;104.53;47.93;;;;;;;-141.97;100.00;47803.56;5011456;28;20159;-82
2023/01/05 04:06:48;;;;;;;99.07;46.80;;;;;;;-141.97;100.00;47715.13;5011752;28;20167;-83
2023/01/05 04:09:13;;;;;;;97.97;45.20;;;;;;;-141.97;100.00;47855.44;5011518;28;20612;-82
2023/01/05 04:11:39;;;;;;;97.13;45.10;;;;;;;-141.97;100.00;47895.81;5012004;28;20247;-82
2023/01/05 04:14:04;;;;;;;97.83;45.93;;;;;;;-141.97;100.00;47895.81;5021093;28;20178;-82
2023/01/05 04:16:29;;;;;;;96.20;45.83;;;;;;;-141.97;100.00;47805.47;5023025;28;20336;-83
2023/01/05 04:18:55;;;;;;;98.90;47.37;;;;;;;-141.97;100.00;47828.53;5022771;28;20167;-82
2023/01/05 04:21:20;;;;;;;90.57;44.27;;;;;;;-141.97;100.00;47734.34;5019649;28;20199;-82
2023/01/05 04:23:46;;;;;;;89.50;42.80;;;;;;;-141.97;100.00;47866.97;5019633;28;20195;-82
2023/01/05 04:26:11;;;;;;;96.03;43.27;;;;;;;-141.97;100.00;47776.63;5021229;28;20190;-83
2023/01/05 04:28:36;;;;;;;99.47;42.97;;;;;;;-141.97;100.00;47811.25;5020932;28;20167;-82
2023/01/05 04:31:02;;;;;;;89.17;40.43;;;;;;;-141.97;100.00;47818.94;5019285;28;20163;-82
2023/01/05 04:33:27;;;;;;;100.30;43.87;;;;;;;-141.97;100.00;47742.03;5020745;28;20167;-83
2023/01/05 04:35:53;;;;;;;87.83;39.63;;;;;;;-141.97;100.00;47765.09;5024039;28;20170;-82
2023/01/05 04:38:18;;;;;;;96.00;42.67;;;;;;;-141.97;100.00;47830.47;5023795;28;20222;-82
2023/01/05 04:40:48;;;;;;;101.73;43.50;;;;;;;-141.97;100.00;47809.31;5016534;28;20177;-83
2023/01/05 04:43:14;;;;;;;97.30;43.73;;;;;;;-141.97;100.00;47815.09;5014962;28;20166;-83
2023/01/05 04:45:39;;;;;;;97.73;44.57;;;;;;;-141.97;100.00;47722.81;5014746;28;20631;-83
2023/01/05 04:48:05;;;;;;;102.00;45.13;;;;;;;-141.97;100.00;47765.09;5014770;28;20159;-83
2023/01/05 04:50:30;;;;;;;112.70;51.07;;;;;;;-141.97;100.00;47815.09;5018504;28;20159;-83
2023/01/05 04:52:55;;;;;;;107.20;50.97;;;;;;;-141.97;100.00;47770.88;5019817;28;20190;-83
2023/01/05 04:55:21;;;;;;;142.70;66.07;;;;;;;-141.97;100.00;47805.47;5020231;28;20627;-83
2023/01/05 04:57:46;;;;;;;145.77;69.97;;;;;;;-141.97;100.00;47670.91;5022071;28;20191;-82
2023/01/05 05:00:12;;;;;;;148.23;66.73;;;;;;;-141.97;100.00;47830.47;5021910;28;20197;-83
2023/01/05 05:02:37;;;;;;;276.13;126.50;;;;;;;-141.97;100.00;47776.63;5020987;28;20190;-83
2023/01/05 05:05:03;;;;;;;353.23;151.70;;;;;;;-141.97;100.00;47826.63;5016927;28;20158;-83
2023/01/05 05:07:29;;;;;;;178.30;86.60;;;;;;;-141.97;100.00;47826.63;5015868;28;20200;-83
2023/01/05 05:09:54;;;;;;;221.20;103.90;;;;;;;-141.97;100.00;47815.09;5014498;28;20162;-83
2023/01/05 05:12:19;;;;;;;141.37;60.87;;;;;;;-141.97;100.00;47726.66;5013794;28;20268;-83
2023/01/05 05:14:46;;;;;;;137.27;64.73;;;;;;;-141.97;100.00;47753.56;5013690;28;20163;-83
2023/01/05 05:17:12;;;;;;;131.57;61.17;;;;;;;-141.97;100.00;47815.09;5013921;28;20166;-82
2023/01/05 05:19:37;;;;;;;112.90;50.40;;;;;;;-141.97;100.00;47722.81;4996169;28;20555;-83
2023/01/05 05:22:02;;;;;;;128.20;63.30;;;;;;;-141.97;100.00;47817.00;5013496;28;20268;-82
2023/01/05 05:24:28;;;;;;;133.97;63.77;;;;;;;-141.97;100.00;47863.13;5014249;28;20170;-82
2023/01/05 05:26:53;;;;;;;132.20;62.97;;;;;;;-141.97;100.00;47865.06;5013635;28;20167;-83
2023/01/05 05:29:19;;;;;;;123.57;57.70;;;;;;;-141.97;100.00;47734.34;5013596;28;20588;-83
2023/01/05 05:31:44;;;;;;;131.87;62.37;;;;;;;-141.97;100.00;47799.72;5013498;28;20209;-82
2023/01/05 05:34:10;;;;;;;134.53;66.60;;;;;;;-141.97;100.00;47849.69;4995809;28;20474;-83
2023/01/05 05:36:36;;;;;;;165.97;83.43;;;;;;;-141.97;100.00;47788.19;5013766;28;20166;-85
2023/01/05 05:39:02;;;;;;;190.27;98.50;;;;;;;-141.97;100.00;47851.59;4996069;28;20232;-84
2023/01/05 05:41:28;;;;;;;188.90;98.63;;;;;;;-141.97;100.00;47855.44;5013718;28;20191;-86
2023/01/05 05:43:53;;;;;;;229.27;115.00;;;;;;;-141.97;100.00;47805.47;5013667;28;20628;-84
2023/01/05 05:46:18;;;;;;;154.13;75.97;;;;;;;-141.97;100.00;47822.78;5016165;28;20166;-83
2023/01/05 05:48:44;;;;;;;190.00;88.80;;;;;;;-141.97;100.00;47799.72;5033217;28;20229;-84
2023/01/05 05:51:09;;;;;;;199.87;88.50;;;;;;;-141.97;100.00;47861.22;5031717;28;20186;-82
2023/01/05 05:53:35;;;;;;;342.17;144.07;;;;;;;-141.97;100.00;47726.66;5031785;28;20178;-83
2023/01/05 05:56:00;;;;;;;374.93;160.27;;;;;;;-141.97;100.00;47765.09;5032150;28;20182;-84
2023/01/05 05:58:25;;;;;;;392.33;174.30;;;;;;;-141.97;100.00;47818.94;5026248;28;20214;-83
2023/01/05 06:00:55;;;;;;;303.50;138.37;;;;;;;-141.97;100.00;47770.88;5020605;28;20184;-83
2023/01/05 06:03:21;;;;;;;312.50;137.03;;;;;;;-141.97;100.00;47876.59;5031228;28;20224;-82
2023/01/05 06:05:46;;;;;;;363.13;151.90;;;;;;;-141.97;100.00;47834.31;5017856;28;20182;-83
2023/01/05 06:08:11;;;;;;;303.97;128.90;;;;;;;-141.97;100.00;47778.56;5027409;28;20289;-82
2023/01/05 06:10:37;;;;;;;294.40;134.13;;;;;;;-141.97;100.00;47849.69;5012075;28;20186;-83
2023/01/05 06:13:04;;;;;;;251.90;110.17;;;;;;;-141.97;100.00;47861.22;5011476;28;20758;-84
2023/01/05 06:15:29;;;;;;;237.50;106.57;;;;;;;-141.97;100.00;47817.00;5012136;28;20269;-82
2023/01/05 06:17:54;;;;;;;200.60;91.40;;;;;;;-141.97;100.00;47861.22;5010901;28;20613;-82
2023/01/05 06:20:20;;;;;;;217.13;98.67;;;;;;;-141.97;100.00;47742.03;5011911;28;20186;-81
2023/01/05 06:22:45;;;;;;;229.83;107.30;;;;;;;-141.97;100.00;47803.56;5009580;28;20238;-83
2023/01/05 06:25:11;;;;;;;224.20;103.53;;;;;;;-141.97;100.00;47788.19;5011536;28;20218;-81
2023/01/05 06:27:36;;;;;;;269.10;123.87;;;;;;;-141.97;100.00;47745.88;5011006;28;20574;-82
2023/01/05 06:30:03;;;;;;;262.70;117.10;;;;;;;-141.97;100.00;47788.19;5010986;28;20201;-82
2023/01/05 06:32:28;;;;;;;280.67;127.10;;;;;;;-141.97;100.00;47815.09;5011917;28;20187;-83
2023/01/05 06:34:54;;;;;;;286.90;133.23;;;;;;;-141.97;100.00;47805.47;5011379;28;20757;-81
2023/01/05 06:37:19;;;;;;;279.43;126.33;;;;;;;-141.97;100.00;47778.56;5014022;28;20620;-83
2023/01/05 06:39:45;;;;;;;328.47;139.00;;;;;;;-141.97;100.00;47784.34;5011785;28;20300;-84
2023/01/05 06:42:10;;;;;;;343.87;143.17;;;;;;;-141.97;100.00;47793.94;5023369;28;20757;-82
2023/01/05 06:44:36;;;;;;;277.93;119.30;;;;;;;-141.97;100.00;47761.25;5049810;28;20773;-82
2023/01/05 06:47:01;;;;;;;297.07;127.73;;;;;;;-141.97;100.00;47786.25;5038216;28;20237;-85
2023/01/05 06:49:27;;;;;;;265.77;107.40;;;;;;;-141.97;100.00;47865.06;5036531;28;20579;-83
2023/01/05 06:51:52;;;;;;;205.53;92.23;;;;;;;-141.97;100.00;47761.25;5031222;28;20272;-82
2023/01/05 06:54:18;;;;;;;184.03;82.43;;;;;;;-141.97;100.00;47842.00;5030719;28;20182;-82
2023/01/05 06:56:43;;;;;;;132.87;62.63;;;;;;;-141.97;100.00;47792.03;5031547;28;20177;-82
2023/01/05 06:59:11;;;;;;;139.73;63.17;;;;;;;-141.97;100.00;47822.78;5017073;28;20190;-81
2023/01/05 07:01:36;;;;;;;122.63;51.80;;;;;;;-141.97;100.00;47795.88;5033570;28;20198;-82
2023/01/05 07:04:02;;;;;;;117.87;50.90;;;;;;;-141.97;100.00;47866.97;5031266;28;20182;-82
2023/01/05 07:06:27;;;;;;;109.30;49.33;;;;;;;-141.97;100.00;47757.41;5013097;28;20189;-82
2023/01/05 07:08:53;;;;;;;105.67;47.57;;;;;;;-141.97;100.00;47809.31;5030570;28;20676;-81
2023/01/05 07:11:18;;;;;;;111.33;48.73;;;;;;;-141.97;83.05;47759.34;5030925;28;20200;-82
2023/01/05 07:13:47;;;;;;;107.50;48.30;;;;;;;-141.97;76.08;47772.78;5030788;28;20816;-82
2023/01/05 07:16:13;;;;;;;93.60;44.67;;;;;;;-141.97;74.02;47765.09;5030408;28;20178;-83
2023/01/05 07:18:38;;;;;;;92.67;43.57;;;;;;;-141.97;71.65;47795.88;5030576;28;20217;-82
2023/01/05 07:21:04;;;;;;;81.33;39.57;;;;;;;-141.97;69.35;47838.16;5031334;28;20235;-82
2023/01/05 07:23:29;;;;;;;77.47;40.60;;;;;;;-141.97;70.27;47795.88;5030576;28;20185;-81
2023/01/05 07:25:58;;;;;;;88.77;43.13;;;;;;;-141.97;70.34;47876.59;5030864;28;20186;-83
2023/01/05 07:28:23;;;;;;;97.50;49.47;;;;;;;-141.97;67.58;47697.84;5029071;28;20277;-80
2023/01/05 07:30:52;;;;;;;111.80;56.10;;;;;;;-141.97;67.96;47832.38;5030505;28;20265;-82
2023/01/05 07:33:17;;;;;;;96.53;48.53;;;;;;;-141.97;73.00;47790.09;5030083;28;20269;-83
2023/01/05 07:35:43;;;;;;;114.77;59.43;;;;;;;-141.97;74.85;47882.38;5030456;28;20186;-83
2023/01/05 07:38:08;;;;;;;115.13;58.83;;;;;;;-141.97;75.87;47763.19;5029453;28;20313;-83
2023/01/05 07:40:34;;;;;;;122.27;60.50;;;;;;;-141.97;76.37;47788.19;5028871;28;20217;-83
2023/01/05 07:43:00;;;;;;;108.63;51.90;;;;;;;-141.97;77.12;47751.66;5013467;28;20202;-83
2023/01/05 07:45:25;;;;;;;109.37;52.03;;;;;;;-141.97;77.75;47765.09;5009987;28;20242;-82
2023/01/05 07:47:51;;;;;;;103.80;49.10;;;;;;;-141.97;78.11;47807.41;4999304;28;20321;-83
2023/01/05 07:50:16;;;;;;;110.93;53.13;;;;;;;-141.97;78.19;47768.94;5010001;28;20178;-83
2023/01/05 07:52:42;;;;;;;103.83;51.47;;;;;;;-141.97;77.84;47780.47;5009816;28;20192;-83
2023/01/05 07:55:07;;;;;;;100.43;51.27;;;;;;;-141.97;77.34;47803.56;5010317;28;20186;-83
2023/01/05 07:57:33;;;;;;;93.57;46.60;;;;;;;-141.97;76.52;47826.63;5010002;28;20185;-81
2023/01/05 07:59:58;;;;;;;102.90;47.93;;;;;;;-141.97;76.66;47780.47;5012354;28;20183;-82
2023/01/05 08:02:26;;;;;;;87.20;41.23;;;;;;;-141.97;76.11;47734.34;5013899;28;20655;-83
2023/01/05 08:04:52;;;;;;;92.67;46.50;;;;;;;-141.97;75.24;47792.03;5014299;28;20240;-82
2023/01/05 08:07:17;;;;;;;100.87;50.10;;;;;;;-141.97;75.30;47807.41;5013635;28;20187;-83
2023/01/05 08:12:27;;;;;;;119.87;57.50;;;;;;;-141.97;73.96;47815.09;5013847;28;20193;-82
2023/01/05 08:14:53;;;;;;;162.20;80.83;;;;;;;-141.97;73.77;47813.16;5013424;28;20568;-84
2023/01/05 08:17:18;;;;;;;140.13;67.60;;;;;;;-141.97;72.80;47747.81;5012378;28;20179;-83
2023/01/05 08:19:43;;;;;;;120.93;57.43;;;;;;;-141.97;71.19;47780.47;5012927;28;20248;-83
2023/01/05 08:22:09;;;;;;;137.13;67.83;;;;;;;-141.97;71.17;47788.19;5023810;28;20216;-83
2023/01/05 08:24:34;;;;;;;131.90;68.67;;;;;;;-141.97;70.58;47653.63;5033769;28;20214;-83
2023/01/05 08:27:00;;;;;;;157.27;82.07;;;;;;;-141.97;69.69;47763.19;5033326;28;20182;-83
2023/01/05 08:29:25;;;;;;;95.13;46.53;;;;;;;-141.97;69.03;47753.56;5023226;28;20280;-83
2023/01/05 08:31:51;;;;;;;104.90;50.30;;;;;;;-141.97;67.84;47745.88;5013590;28;20193;-83
2023/01/05 08:34:16;;;;;;;96.07;48.70;;;;;;;-141.97;67.51;47776.63;5013326;28;20208;-83
2023/01/05 08:36:41;;;;;;;71.73;38.73;;;;;;;-141.97;66.75;47784.34;5013671;28;20190;-83
2023/01/05 08:39:10;;;;;;;81.27;40.87;;;;;;;-141.97;65.79;47797.78;5012749;28;20265;-83
2023/01/05 08:41:37;;;;;;;80.47;41.77;;;;;;;-141.97;66.15;47780.47;5023332;28;20213;-82
2023/01/05 08:44:13;;;;;;;72.93;40.27;;;;;;;-141.97;65.06;47759.34;5052682;28;20243;-83
2023/01/05 08:46:39;;;;;;;89.17;49.43;;;;;;;-141.97;64.30;47799.72;5053165;28;20180;-84
2023/01/05 08:49:08;;;;;;;61.80;32.10;;;;;;;-141.97;63.73;47772.78;5035084;28;20257;-84
2023/01/05 08:51:34;;;;;;;68.00;36.90;;;;;;;-141.97;63.42;47772.78;5032866;28;20196;-84
2023/01/05 08:53:59;;;;;;;58.80;33.57;;;;;;;-141.97;62.92;47749.72;5031369;28;20268;-84
2023/01/05 08:56:25;;;;;;;61.23;34.73;;;;;;;-141.97;62.78;47780.47;5033242;28;20269;-84
2023/01/05 08:58:54;;;;;;;61.83;32.57;;;;;;;-141.97;61.76;47742.03;5028356;28;20182;-84
2023/01/05 09:01:22;;;;;;;76.33;40.93;;;;;;;-141.97;61.45;47865.06;5023271;28;20198;-83
2023/01/05 09:03:48;;;;;;;67.57;38.50;;;;;;;-141.97;60.96;47753.56;5032818;28;20178;-83
2023/01/05 09:06:13;;;;;;;100.13;51.60;;;;;;;-141.97;60.57;47715.13;5032912;28;20560;-83
2023/01/05 09:08:40;;;;;;;60.90;35.47;;;;;;;-141.97;60.46;47780.47;5030710;28;20683;-84
2023/01/05 09:11:17;;;;;;;61.67;33.20;;;;;;;-141.97;59.54;47803.56;5012303;28;20190;-84
2023/01/05 09:13:51;;;;;;;57.80;33.50;;;;;;;-141.97;59.51;47757.41;5012854;28;20186;-84
2023/01/05 09:16:19;;;;;;;62.43;32.83;;;;;;;-141.97;58.78;47807.41;5012887;28;20213;-84
2023/01/05 09:18:45;;;;;;;61.87;35.23;;;;;;;-141.97;59.37;47768.94;5013272;28;20187;-83
2023/01/05 09:21:11;;;;;;;48.50;27.17;;;;;;;-141.97;60.15;47742.03;5018878;28;20250;-83
2023/01/05 09:23:37;;;;;;;49.10;27.97;;;;;;;-141.97;59.51;47757.41;5023133;28;20260;-83
2023/01/05 09:26:08;;;;;;;50.83;25.73;;;;;;;-141.97;58.34;47738.19;5032845;28;20248;-83
2023/01/05 09:28:35;;;;;;;49.33;26.07;;;;;;;-141.97;57.84;47676.69;5012373;28;20940;-83
2023/01/05 09:31:26;;;;;;;45.70;25.87;;;;;;;-141.97;58.36;47745.88;5018211;28;20193;-82
2023/01/05 09:33:52;;;;;;;45.60;25.83;;;;;;;-141.97;57.92;47745.88;4990599;28;20223;-83
2023/01/05 09:36:18;;;;;;;55.27;29.17;;;;;;;-141.97;58.18;47761.25;4990332;28;20254;-83
2023/01/05 09:38:50;;;;;;;60.50;34.97;;;;;;;-141.97;57.38;47776.63;4974756;28;20581;-82
2023/01/05 09:41:21;;;;;;;46.07;28.60;;;;;;;-141.97;56.18;47747.81;5009377;28;20222;-82
2023/01/05 09:43:49;;;;;;;69.23;40.00;;;;;;;-141.97;56.71;47740.13;4997688;28;20257;-77
2023/01/05 09:46:22;;;;;;;41.40;23.93;;;;;;;-141.97;56.00;47765.09;4989076;28;20596;-78
2023/01/05 09:48:54;;;;;;;42.83;23.13;;;;;;;-141.97;56.13;47768.94;4976986;28;20295;-78
2023/01/05 09:51:20;;;;;;;55.47;30.03;;;;;;;-141.97;55.84;47717.06;4988003;28;20320;-80
2023/01/05 09:53:46;;;;;;;45.97;25.53;;;;;;;-141.97;56.12;47730.50;4988448;28;20377;-79
2023/01/05 09:56:36;;;;;;;41.73;21.63;;;;;;;-141.97;55.64;47730.50;4988619;28;20183;-79
2023/01/05 09:59:12;;;;;;;47.60;26.57;;;;;;;-141.97;56.56;47720.91;4964474;28;20290;-77
2023/01/05 10:01:39;;;;;;;53.60;27.17;;;;;;;-141.97;56.04;47740.13;4948997;29;20208;-78
2023/01/05 10:04:17;;;;;;;48.97;26.00;;;;;;;-141.97;55.01;47745.88;4949205;29;20200;-78
2023/01/05 10:07:19;;;;;;;37.17;20.60;;;;;;;-141.97;55.47;47715.13;4961639;28;20191;-78
2023/01/05 10:09:46;;;;;;;38.33;20.37;;;;;;;-141.97;55.07;47718.97;4894938;29;20573;-78
2023/01/05 10:15:11;;;;;;;38.13;20.90;;;;;;;-141.97;53.85;47720.91;4910930;29;20593;-78
2023/01/05 10:17:40;;;;;;;34.90;19.57;;;;;;;-141.97;52.76;47718.97;4910730;29;20202;-78
2023/01/05 10:20:38;;;;;;;39.50;21.83;;;;;;;-141.97;53.07;47715.13;4910652;29;20190;-78
2023/01/05 10:23:09;;;;;;;57.03;27.33;;;;;;;-141.97;54.34;47757.41;4872724;29;20282;-79
2023/01/05 10:26:01;;;;;;;37.97;21.60;;;;;;;-141.97;53.44;47734.34;4873215;29;20662;-78
2023/01/05 10:28:38;;;;;;;38.00;21.83;;;;;;;-141.97;51.85;47730.50;4873329;29;20241;-78
2023/01/05 10:31:13;;;;;;;36.00;21.23;;;;;;;-141.97;51.11;47718.97;4872283;29;20188;-79
2023/01/05 10:34:08;;;;;;;34.90;19.30;;;;;;;-141.97;51.39;47728.59;4872411;29;20202;-78
2023/01/05 10:36:53;;;;;;;30.27;17.77;;;;;;;-141.97;51.56;47718.97;4834598;29;20197;-78
2023/01/05 10:39:50;;;;;;;28.03;15.83;;;;;;;-141.97;51.88;47765.09;4839689;29;20283;-79
2023/01/05 10:42:27;;;;;;;34.37;18.80;;;;;;;-141.97;51.97;47745.88;4864179;29;20211;-78
2023/01/05 10:45:02;;;;;;;37.07;19.93;;;;;;;-141.97;51.33;47724.75;4878751;29;20262;-79
2023/01/05 10:47:30;;;;;;;28.27;15.47;;;;;;;-141.97;52.24;47745.88;4890401;29;20225;-78
2023/01/05 10:49:56;;;;;;;40.27;23.03;;;;;;;-141.97;51.89;47695.91;4870659;29;20313;-78
2023/01/05 10:52:22;;;;;;;25.33;15.83;;;;;;;-141.97;51.17;47865.06;4872847;29;20191;-78
2023/01/05 10:54:49;;;;;;;21.20;13.77;;;;;;;-141.97;49.63;47743.97;4873186;29;20267;-83
2023/01/05 10:57:35;;;;;;;26.87;16.07;;;;;;;-141.97;49.45;47726.66;4872314;29;20216;-79
2023/01/05 11:00:10;;;;;;;19.93;12.37;;;;;;;-141.97;50.35;47705.53;4902081;29;20197;-79
2023/01/05 11:02:39;;;;;;;19.37;11.27;;;;;;;-141.97;50.95;47795.88;4928929;29;20287;-78
2023/01/05 11:05:11;;;;;;;18.90;11.77;;;;;;;-141.97;50.38;47718.97;4929521;29;20277;-82
2023/01/05 11:07:49;;;;;;;20.03;12.07;;;;;;;-141.97;50.09;47722.81;4928736;29;20208;-78
2023/01/05 11:10:21;;;;;;;19.53;11.40;;;;;;;-141.97;50.15;47715.13;4927910;29;20192;-78
2023/01/05 11:12:53;;;;;;;17.70;10.93;;;;;;;-141.97;50.11;47724.75;4954317;28;20206;-78
2023/01/05 11:15:19;;;;;;;17.80;11.57;;;;;;;-141.97;50.11;47784.34;4989625;28;20183;-78
2023/01/05 11:17:45;;;;;;;22.17;12.33;;;;;;;-141.97;49.26;47724.75;4989066;28;20187;-79
2023/01/05 11:20:16;;;;;;;22.10;12.53;;;;;;;-141.97;49.54;47726.66;4988794;28;20241;-77
2023/01/05 11:22:44;;;;;;;21.73;12.37;;;;;;;-141.97;50.23;47784.34;4988897;28;20219;-77
2023/01/05 11:25:12;;;;;;;35.73;17.93;;;;;;;-141.97;50.67;47749.72;4988037;28;20195;-77
2023/01/05 11:27:38;;;;;;;50.93;27.57;;;;;;;-141.97;50.20;47738.19;4988832;28;20179;-77
2023/01/05 11:30:15;;;;;;;32.10;17.47;;;;;;;-141.97;49.53;47753.56;4988784;28;20623;-77
2023/01/05 11:32:42;;;;;;;32.87;17.27;;;;;;;-141.97;48.52;47745.88;4988729;28;20191;-78
2023/01/05 11:35:35;;;;;;;22.80;12.80;;;;;;;-141.97;48.93;47730.50;4988321;28;20190;-78
2023/01/05 11:38:01;;;;;;;25.30;13.97;;;;;;;-141.97;49.41;47694.00;4946811;29;20974;-78
2023/01/05 11:40:35;;;;;;;24.20;14.50;;;;;;;-141.97;50.35;47713.22;4948627;29;20192;-78